Terminal Aerodrome Forecast
Issued by NWS

Home | Current Version | Previous Version | Graphics & Text | Print | Product List | Glossary On
Versions: 1 2 3 4 5 6 7 8 9 10 11 12 13 14 15
000
FTUS45 KGGW 261131
TAFOLF
TAF
KOLF 261131Z 2612/2712 10005KT P6SM OVC070
     FM261400 19005KT 3SM -SN SCT025 OVC035
     FM261700 29007KT P6SM OVC030
     FM270500 05005KT P6SM VCSH SCT022 OVC035=

USA.gov is the U.S. government's official web portal to all federal, state and local government web resources and services.